Time;durP1;ratioP1;P1;durP2;ratioP2;P2;SDS_P1;SDS_P2;PMS_P1;PMS_P2;Temp;Humidity;BMP_temperature;BMP_pressure;BME280_temperature;BME280_humidity;BME280_pressure;Samples;Min_cycle;Max_cycle;Signal;HPM_P1;HPM_P2
2022/11/26 00:02:16;;;;;;;18.98;16.95;;;;;;;8.75;65.44;101751.63;4971143;28;119972;-73
2022/11/26 00:04:42;;;;;;;20.13;16.60;;;;;;;8.71;65.82;101750.91;4982720;28;119483;-72
2022/11/26 00:07:11;;;;;;;22.10;16.77;;;;;;;8.73;65.92;101764.19;4967279;28;119468;-76
2022/11/26 00:09:38;;;;;;;21.27;18.08;;;;;;;8.68;65.93;101759.94;4963015;28;119674;-72
2022/11/26 00:12:33;;;;;;;22.55;18.30;;;;;;;8.70;66.53;101763.03;4983239;28;119723;-73
2022/11/26 00:15:13;;;;;;;20.63;17.83;;;;;;;8.74;67.23;101766.50;4961423;28;119878;-73
2022/11/26 00:17:39;;;;;;;19.73;16.98;;;;;;;8.80;67.03;101775.03;4983842;28;119774;-73
2022/11/26 00:20:06;;;;;;;19.88;16.45;;;;;;;8.83;66.31;101776.94;4970373;28;122018;-73
2022/11/26 00:22:38;;;;;;;17.75;15.25;;;;;;;8.80;65.76;101775.81;4971149;28;119305;-72
2022/11/26 00:25:05;;;;;;;18.05;14.90;;;;;;;8.80;65.58;101777.78;4984808;28;119794;-75
2022/11/26 00:27:30;;;;;;;20.75;15.80;;;;;;;8.72;65.26;101779.03;4991816;28;120469;-73
2022/11/26 00:29:56;;;;;;;16.65;13.73;;;;;;;8.72;66.45;101784.50;4969470;28;119897;-73
2022/11/26 00:32:25;;;;;;;15.87;13.60;;;;;;;8.71;66.18;101791.16;4969275;28;119844;-73
2022/11/26 00:34:52;;;;;;;16.13;12.95;;;;;;;8.68;66.75;101781.81;4989466;28;120110;-72
2022/11/26 00:37:40;;;;;;;16.50;13.02;;;;;;;8.71;66.35;101791.16;4986009;28;119621;-73
2022/11/26 00:40:13;;;;;;;16.67;13.47;;;;;;;8.69;66.07;101793.53;4989373;28;119935;-73
2022/11/26 00:42:39;;;;;;;18.40;13.63;;;;;;;8.70;66.49;101792.34;4983063;28;119642;-75
2022/11/26 00:45:20;;;;;;;17.77;13.27;;;;;;;8.70;66.01;101793.13;4990886;28;119369;-75
2022/11/26 00:47:52;;;;;;;16.88;14.02;;;;;;;8.68;66.23;101798.22;4990067;28;120096;-73
2022/11/26 00:50:25;;;;;;;15.82;13.05;;;;;;;8.65;65.78;101801.03;4967144;28;119712;-73
2022/11/26 00:52:55;;;;;;;15.13;13.47;;;;;;;8.60;65.24;101802.25;4969077;28;120080;-72
2022/11/26 00:55:25;;;;;;;18.03;12.90;;;;;;;8.55;64.76;101803.47;4993176;28;120084;-72
2022/11/26 00:57:51;;;;;;;18.88;13.00;;;;;;;8.48;64.91;101800.81;4971279;28;119521;-73
2022/11/26 01:00:20;;;;;;;14.95;12.73;;;;;;;8.46;64.65;101811.38;4989087;28;119698;-73
2022/11/26 01:02:47;;;;;;;14.52;12.50;;;;;;;8.42;65.27;101810.66;4988318;28;120030;-72
2022/11/26 01:05:13;;;;;;;15.13;13.20;;;;;;;8.38;64.65;101806.41;4992573;28;119462;-72
2022/11/26 01:07:41;;;;;;;14.95;12.50;;;;;;;8.35;65.91;101815.44;4965209;28;119634;-73
2022/11/26 01:10:18;;;;;;;17.45;12.13;;;;;;;8.35;66.32;101816.22;4987595;28;119888;-73
2022/11/26 01:12:45;;;;;;;15.25;11.70;;;;;;;8.40;67.18;101820.44;4975459;28;119302;-72
2022/11/26 01:15:12;;;;;;;15.77;11.20;;;;;;;8.41;66.68;101817.31;4979309;28;119626;-73
2022/11/26 01:17:37;;;;;;;15.75;11.90;;;;;;;8.44;66.98;101821.97;4980984;28;119494;-73
2022/11/26 01:20:30;;;;;;;14.33;10.83;;;;;;;8.44;67.23;101826.66;4973594;28;119553;-73
2022/11/26 01:22:57;;;;;;;16.23;11.18;;;;;;;8.46;67.03;101825.06;4975174;28;119507;-73
2022/11/26 01:25:27;;;;;;;18.35;10.60;;;;;;;8.52;66.72;101825.41;4970939;28;119735;-73
2022/11/26 01:27:53;;;;;;;15.15;10.88;;;;;;;8.49;65.26;101826.97;4987955;28;119935;-73
2022/11/26 01:30:23;;;;;;;15.93;11.10;;;;;;;8.43;65.50;101827.84;4978778;28;120070;-73
2022/11/26 01:32:49;;;;;;;13.83;10.53;;;;;;;8.41;66.31;101827.47;4987426;28;119572;-73
2022/11/26 01:35:17;;;;;;;16.30;11.07;;;;;;;8.36;66.56;101823.22;4971074;28;120222;-73
2022/11/26 01:37:43;;;;;;;15.52;10.98;;;;;;;8.39;65.45;101833.34;4984114;28;119312;-73
2022/11/26 01:40:47;;;;;;;18.42;12.93;;;;;;;8.35;65.89;101837.31;4953123;28;121268;-73
2022/11/26 01:43:25;;;;;;;19.33;13.70;;;;;;;8.32;65.73;101845.09;4983595;28;119849;-73
2022/11/26 01:45:51;;;;;;;16.55;12.38;;;;;;;8.27;65.43;101842.78;4982885;28;119368;-73
2022/11/26 01:48:32;;;;;;;16.33;12.10;;;;;;;8.26;65.09;101848.66;4970720;28;119679;-73
2022/11/26 01:51:04;;;;;;;17.10;13.38;;;;;;;8.23;65.76;101852.22;4979775;28;119687;-73
2022/11/26 01:53:53;;;;;;;14.73;11.70;;;;;;;8.22;65.79;101856.13;4992396;28;119622;-73
2022/11/26 01:56:24;;;;;;;16.88;11.73;;;;;;;8.20;65.84;101858.50;4981698;28;119824;-73
2022/11/26 01:58:55;;;;;;;15.23;11.70;;;;;;;8.20;66.69;101862.00;4958779;28;119292;-73
2022/11/26 02:01:20;;;;;;;14.43;10.82;;;;;;;8.20;65.57;101862.00;4971153;28;119646;-73
2022/11/26 02:03:58;;;;;;;16.37;11.97;;;;;;;8.16;65.45;101871.44;4983897;28;120252;-73
2022/11/26 02:06:30;;;;;;;13.65;11.43;;;;;;;8.06;64.98;101856.69;4963452;28;119214;-73
2022/11/26 02:08:58;;;;;;;19.67;12.23;;;;;;;8.04;65.16;101866.44;4968374;28;120016;-73
2022/11/26 02:11:24;;;;;;;15.95;11.10;;;;;;;7.98;64.99;101868.84;4988169;28;119848;-73
2022/11/26 02:13:54;;;;;;;17.17;11.38;;;;;;;7.94;65.18;101868.88;4977213;28;119727;-73
2022/11/26 02:16:38;;;;;;;15.57;10.80;;;;;;;7.91;65.55;101866.94;4991758;28;119438;-73
2022/11/26 02:19:44;;;;;;;13.57;9.93;;;;;;;7.85;65.28;101873.25;4987576;28;119663;-73
2022/11/26 02:22:29;;;;;;;17.70;10.60;;;;;;;7.84;65.42;101880.69;4988087;28;119213;-73
2022/11/26 02:25:36;;;;;;;15.93;10.53;;;;;;;7.81;66.40;101881.47;4969702;28;119262;-73
2022/11/26 02:28:09;;;;;;;28.80;12.90;;;;;;;7.77;66.59;101872.50;4936575;28;119950;-73
2022/11/26 02:30:40;;;;;;;44.80;17.13;;;;;;;7.80;66.65;101877.16;4987929;28;119699;-73
2022/11/26 02:33:15;;;;;;;31.60;14.75;;;;;;;7.82;66.20;101888.50;4975630;28;119549;-73
2022/11/26 02:35:48;;;;;;;33.33;15.25;;;;;;;7.85;65.53;101898.63;4987186;28;119697;-73
2022/11/26 02:38:25;;;;;;;64.25;21.00;;;;;;;7.80;66.33;101884.59;4979538;28;119397;-73
2022/11/26 02:40:51;;;;;;;54.53;18.37;;;;;;;7.81;65.69;101897.88;4966094;28;119821;-73
2022/11/26 02:43:19;;;;;;;52.55;17.48;;;;;;;7.75;64.87;101894.00;4969140;28;119364;-73
2022/11/26 02:45:51;;;;;;;45.93;17.43;;;;;;;7.75;65.45;101904.91;4959706;28;120102;-73
2022/11/26 02:48:22;;;;;;;33.63;14.57;;;;;;;7.67;65.28;101900.69;4969324;28;119675;-73
2022/11/26 02:50:53;;;;;;;26.15;13.30;;;;;;;7.68;65.35;101904.97;4979132;28;119259;-73
2022/11/26 02:53:22;;;;;;;27.58;12.77;;;;;;;7.67;65.09;101912.38;4974930;28;119710;-73
2022/11/26 02:55:52;;;;;;;20.43;11.40;;;;;;;7.65;65.57;101912.03;4990668;28;119384;-73
2022/11/26 02:58:19;;;;;;;21.63;11.50;;;;;;;7.64;65.53;101909.69;4963779;28;119353;-73
2022/11/26 03:00:48;;;;;;;18.23;10.07;;;;;;;7.62;65.70;101917.50;4967821;28;119515;-73
2022/11/26 03:03:22;;;;;;;22.23;11.32;;;;;;;7.65;66.08;101924.91;4991700;28;119893;-73
2022/11/26 03:05:57;;;;;;;17.50;9.15;;;;;;;7.67;66.00;101919.81;4986528;28;119251;-73
2022/11/26 03:08:25;;;;;;;16.60;8.73;;;;;;;7.71;66.79;101917.81;4968972;28;119861;-73
2022/11/26 03:10:51;;;;;;;14.20;7.63;;;;;;;7.74;66.25;101918.97;4985636;28;119754;-73
2022/11/26 03:13:17;;;;;;;13.60;8.10;;;;;;;7.70;66.27;101921.72;4960036;28;122022;-73
2022/11/26 03:15:43;;;;;;;11.32;7.40;;;;;;;7.77;66.25;101935.34;4986478;28;119542;-73
2022/11/26 03:18:09;;;;;;;11.63;7.67;;;;;;;7.79;66.18;101932.97;4965414;28;119982;-73
2022/11/26 03:20:35;;;;;;;12.45;7.22;;;;;;;7.81;65.93;101933.38;4990062;28;119289;-72
2022/11/26 03:23:00;;;;;;;10.38;7.05;;;;;;;7.83;65.67;101932.97;4976042;28;119351;-73
2022/11/26 03:25:26;;;;;;;11.03;7.07;;;;;;;7.84;65.89;101932.56;4972962;28;119200;-73
2022/11/26 03:27:54;;;;;;;14.55;8.20;;;;;;;7.76;65.79;101922.09;4985237;28;119683;-73
2022/11/26 03:30:19;;;;;;;14.70;8.80;;;;;;;7.81;65.77;101930.66;4968847;28;119964;-72
2022/11/26 03:32:45;;;;;;;17.23;10.00;;;;;;;7.77;65.49;101935.34;4986503;28;119750;-73
2022/11/26 03:35:11;;;;;;;20.35;9.95;;;;;;;7.72;64.39;101935.75;4969563;28;119549;-73
2022/11/26 03:37:36;;;;;;;19.90;10.15;;;;;;;7.61;65.29;101927.66;4985699;28;119543;-73
2022/11/26 03:40:02;;;;;;;14.23;8.65;;;;;;;7.62;65.80;101934.66;4979638;28;120160;-73
2022/11/26 03:42:28;;;;;;;14.93;8.30;;;;;;;7.64;65.68;101935.03;4976102;28;119577;-72
2022/11/26 03:44:54;;;;;;;14.98;8.35;;;;;;;7.65;65.87;101935.81;4971218;28;119404;-73
2022/11/26 03:47:20;;;;;;;11.75;7.60;;;;;;;7.64;65.52;101947.91;4978675;28;119764;-73
2022/11/26 03:49:45;;;;;;;13.82;8.55;;;;;;;7.63;65.36;101944.41;4964621;28;120426;-73
2022/11/26 03:52:11;;;;;;;11.65;8.55;;;;;;;7.65;66.62;101950.25;4964079;28;119966;-73
2022/11/26 03:54:37;;;;;;;9.80;7.57;;;;;;;7.71;67.05;101950.59;4964789;28;120012;-73
2022/11/26 03:57:03;;;;;;;8.75;7.40;;;;;;;7.79;68.00;101959.53;4962290;28;120177;-73
2022/11/26 03:59:29;;;;;;;10.82;7.82;;;;;;;7.88;67.59;101957.91;4972755;28;119585;-73
2022/11/26 04:01:55;;;;;;;12.80;7.90;;;;;;;7.99;67.76;101963.28;4975505;28;119394;-73
2022/11/26 04:04:21;;;;;;;13.27;7.97;;;;;;;8.11;67.92;101959.31;4985027;28;119547;-73
2022/11/26 04:06:46;;;;;;;13.75;8.38;;;;;;;8.19;68.46;101944.41;4987426;28;119918;-73
2022/11/26 04:09:12;;;;;;;17.60;9.10;;;;;;;8.35;68.95;101957.59;4968127;28;119246;-73
2022/11/26 04:11:38;;;;;;;14.27;8.00;;;;;;;8.41;68.22;101964.97;4950510;28;119377;-73
2022/11/26 04:14:03;;;;;;;12.27;7.53;;;;;;;8.49;67.88;101962.94;4986633;28;119969;-73
2022/11/26 04:16:29;;;;;;;27.02;8.30;;;;;;;8.50;67.92;101954.31;4986117;28;119975;-73
2022/11/26 04:18:55;;;;;;;23.85;8.80;;;;;;;8.61;67.48;101971.41;4967501;28;121785;-73
2022/11/26 04:21:21;;;;;;;25.35;9.43;;;;;;;8.68;67.51;101953.38;4986481;28;119803;-73
2022/11/26 04:23:46;;;;;;;28.55;9.27;;;;;;;8.66;67.66;101963.94;4985184;28;119369;-73
2022/11/26 04:26:12;;;;;;;27.77;9.80;;;;;;;8.70;67.03;101975.63;4984968;28;119515;-73
2022/11/26 04:28:38;;;;;;;28.33;10.10;;;;;;;8.64;67.71;101966.31;4976652;28;119659;-73
2022/11/26 04:31:06;;;;;;;27.73;9.23;;;;;;;8.69;67.29;101985.03;4967677;28;120508;-73
2022/11/26 04:33:31;;;;;;;29.45;9.15;;;;;;;8.65;67.14;101976.06;4982773;28;119495;-73
2022/11/26 04:35:57;;;;;;;19.98;8.90;;;;;;;8.68;67.32;101980.72;4986222;28;119290;-73
2022/11/26 04:38:24;;;;;;;18.70;9.10;;;;;;;8.63;66.69;101984.69;4962137;28;119455;-73
2022/11/26 04:40:50;;;;;;;18.33;8.90;;;;;;;8.66;67.33;101994.03;4968629;28;119771;-73
2022/11/26 04:43:15;;;;;;;21.33;8.07;;;;;;;8.64;66.99;102001.88;4982795;28;119412;-73
2022/11/26 04:45:41;;;;;;;19.30;9.02;;;;;;;8.68;67.39;101992.44;4956607;28;120165;-73
2022/11/26 04:48:07;;;;;;;18.42;9.00;;;;;;;8.69;67.25;101996.75;4959199;28;119891;-73
2022/11/26 04:50:33;;;;;;;16.52;9.30;;;;;;;8.76;66.82;102004.13;4935099;28;120687;-73
2022/11/26 04:52:58;;;;;;;16.70;9.00;;;;;;;8.72;65.77;102001.41;4977725;28;119769;-73
2022/11/26 04:55:24;;;;;;;15.77;9.10;;;;;;;8.68;66.35;102008.88;4975842;28;120905;-73
2022/11/26 04:57:50;;;;;;;17.35;9.75;;;;;;;8.69;66.45;102013.16;4967087;28;120176;-73
2022/11/26 05:00:17;;;;;;;19.73;10.48;;;;;;;8.60;66.62;102010.13;4968881;28;119544;-72
2022/11/26 05:02:53;;;;;;;20.58;10.00;;;;;;;8.60;66.77;102013.63;4978919;28;121528;-73
2022/11/26 05:05:19;;;;;;;20.70;9.55;;;;;;;8.59;67.20;102023.03;4965952;28;119788;-73
2022/11/26 05:07:44;;;;;;;23.33;9.95;;;;;;;8.57;67.09;102022.66;4987689;28;119625;-73
2022/11/26 05:10:10;;;;;;;21.90;10.90;;;;;;;8.57;67.52;102019.91;4990145;28;119989;-73
2022/11/26 05:12:36;;;;;;;15.00;10.82;;;;;;;8.54;68.45;102020.72;4983042;28;120888;-73
2022/11/26 05:15:03;;;;;;;18.35;10.00;;;;;;;8.59;67.39;102016.78;4983473;28;119396;-73
2022/11/26 05:17:30;;;;;;;19.20;10.13;;;;;;;8.61;67.80;102023.41;4987386;28;119408;-73
2022/11/26 05:19:55;;;;;;;19.53;9.80;;;;;;;8.64;67.22;102024.53;4986512;28;119719;-73
2022/11/26 05:22:21;;;;;;;21.70;9.37;;;;;;;8.60;67.19;102030.03;4988952;28;119804;-73
2022/11/26 05:24:47;;;;;;;18.15;8.90;;;;;;;8.61;67.30;102031.59;4970088;28;121122;-73
2022/11/26 05:27:13;;;;;;;13.77;8.20;;;;;;;8.67;67.16;102036.63;4987376;28;119889;-73
2022/11/26 05:29:39;;;;;;;16.55;9.50;;;;;;;8.70;67.13;102027.59;4983564;28;119249;-72
2022/11/26 05:32:05;;;;;;;13.45;9.90;;;;;;;8.72;67.35;102036.19;4972821;28;120438;-73
2022/11/26 05:34:31;;;;;;;13.97;9.50;;;;;;;8.73;67.88;102032.28;4988416;28;119326;-73
2022/11/26 05:36:56;;;;;;;14.23;9.27;;;;;;;8.74;67.66;102044.75;4983940;28;119423;-73
2022/11/26 05:39:22;;;;;;;14.60;9.02;;;;;;;8.76;67.71;102042.44;4990232;28;119907;-73
2022/11/26 05:41:48;;;;;;;12.20;8.93;;;;;;;8.83;67.96;102045.88;4970793;28;120098;-73
2022/11/26 05:44:14;;;;;;;14.50;8.82;;;;;;;8.88;67.35;102050.91;4986207;28;119402;-73
2022/11/26 05:46:41;;;;;;;13.85;8.77;;;;;;;8.94;67.56;102051.22;4985577;28;119533;-73
2022/11/26 05:49:07;;;;;;;13.27;8.65;;;;;;;8.96;67.10;102057.06;4970072;28;119635;-73
2022/11/26 05:51:33;;;;;;;13.00;8.53;;;;;;;9.03;67.25;102059.75;4986634;28;119965;-73
2022/11/26 05:54:03;;;;;;;11.55;7.90;;;;;;;9.09;67.18;102060.88;4991644;28;119259;-73
2022/11/26 05:56:29;;;;;;;12.65;8.38;;;;;;;9.14;67.09;102057.69;4979395;28;120147;-73
2022/11/26 05:58:54;;;;;;;12.43;8.80;;;;;;;9.19;66.54;102062.72;4947643;28;119684;-73
2022/11/26 06:01:20;;;;;;;12.23;8.93;;;;;;;9.23;66.67;102070.91;4960819;28;120163;-73
2022/11/26 06:03:47;;;;;;;14.43;9.15;;;;;;;9.25;66.82;102074.03;4983868;28;119815;-73
2022/11/26 06:06:13;;;;;;;12.53;9.17;;;;;;;9.25;67.14;102067.75;4980529;28;119382;-73
2022/11/26 06:08:39;;;;;;;13.70;8.90;;;;;;;9.25;66.43;102068.53;4985090;28;119808;-72
2022/11/26 06:11:05;;;;;;;14.50;8.73;;;;;;;9.30;66.58;102072.78;4985194;28;120068;-73
2022/11/26 06:13:30;;;;;;;12.75;8.70;;;;;;;9.30;66.66;102073.56;4967127;28;120037;-73
2022/11/26 06:15:56;;;;;;;13.43;8.60;;;;;;;9.29;66.30;102074.75;4987639;28;120619;-72
2022/11/26 06:18:22;;;;;;;12.27;9.67;;;;;;;9.20;65.87;102056.03;4968409;28;120040;-73
2022/11/26 06:20:47;;;;;;;15.67;9.30;;;;;;;9.29;66.51;102073.97;4967521;28;119848;-73
2022/11/26 06:23:14;;;;;;;15.55;9.80;;;;;;;9.30;65.90;102086.47;4984130;28;120254;-72
2022/11/26 06:25:41;;;;;;;13.15;9.07;;;;;;;9.24;66.18;102075.19;4985161;28;119660;-73
2022/11/26 06:28:07;;;;;;;12.60;8.98;;;;;;;9.19;65.76;102089.31;4976469;28;119620;-73
2022/11/26 06:30:33;;;;;;;13.52;9.48;;;;;;;9.15;65.18;102094.81;4950091;28;122599;-73
2022/11/26 06:32:59;;;;;;;13.88;9.88;;;;;;;9.05;65.25;102086.72;4950201;28;119494;-73
2022/11/26 06:35:25;;;;;;;16.20;9.97;;;;;;;9.09;65.65;102103.88;4983558;28;119304;-73
2022/11/26 06:37:50;;;;;;;19.53;10.50;;;;;;;9.06;65.77;102093.75;4988585;28;119439;-73
2022/11/26 06:40:18;;;;;;;19.67;10.73;;;;;;;9.01;66.08;102100.44;4967430;28;119828;-73
2022/11/26 06:42:52;;;;;;;19.98;10.35;;;;;;;9.00;65.63;102107.09;4984413;28;119738;-73
2022/11/26 06:45:19;;;;;;;28.80;11.38;;;;;;;8.99;66.93;102105.56;4966549;28;119421;-73
2022/11/26 06:47:46;;;;;;;48.35;11.35;;;;;;;8.99;66.42;102108.28;4982688;28;119996;-73
2022/11/26 06:50:13;;;;;;;54.50;12.30;;;;;;;8.96;67.21;102109.06;4984217;28;120189;-73
2022/11/26 06:52:39;;;;;;;59.50;12.65;;;;;;;8.91;67.07;102098.56;4985362;28;119752;-72
2022/11/26 06:55:05;;;;;;;64.23;13.30;;;;;;;9.00;67.07;102112.59;4966197;28;121399;-73
2022/11/26 06:57:31;;;;;;;60.53;13.67;;;;;;;8.97;67.81;102107.88;4966765;28;119923;-73
2022/11/26 06:59:56;;;;;;;58.27;13.43;;;;;;;9.03;67.78;102116.47;4988814;28;120090;-72
2022/11/26 07:02:22;;;;;;;66.28;13.95;;;;;;;9.07;67.79;102115.25;4983119;28;120274;-73
2022/11/26 07:05:05;;;;;;;63.60;13.43;;;;;;;9.11;67.69;102124.19;4983436;28;119860;-73
2022/11/26 07:07:30;;;;;;;56.25;15.65;;;;;;;9.13;68.21;102127.31;4966626;28;119717;-72
2022/11/26 07:09:56;;;;;;;58.17;16.42;;;;;;;9.17;68.05;102132.75;4949174;28;120533;-73
2022/11/26 07:12:22;;;;;;;68.90;15.95;;;;;;;9.19;68.12;102128.41;4985493;28;119651;-73
2022/11/26 07:14:47;;;;;;;56.30;18.63;;;;;;;9.23;68.05;102131.16;4984388;28;119679;-73
2022/11/26 07:17:16;;;;;;;55.17;18.00;;;;;;;9.26;68.61;102135.81;4964707;28;119590;-73
2022/11/26 07:19:42;;;;;;;53.38;17.83;;;;;;;9.20;68.47;102124.50;4985406;28;120303;-73
2022/11/26 07:22:08;;;;;;;53.90;17.33;;;;;;;9.32;68.54;102133.41;4988608;28;119982;-73
2022/11/26 07:24:33;;;;;;;54.78;16.35;;;;;;;9.34;68.28;102137.28;4983713;28;119703;-73
2022/11/26 07:26:59;;;;;;;43.92;15.65;;;;;;;9.40;68.68;102138.38;4982283;28;119815;-73
2022/11/26 07:29:25;;;;;;;60.45;16.58;;;;;;;9.46;68.77;102138.72;4983667;28;120949;-73
2022/11/26 07:32:14;;;;;;;50.43;15.07;;;;;;;9.49;68.81;102133.22;4945491;28;119980;-73
2022/11/26 07:35:15;;;;;;;47.17;14.20;;;;;;;9.60;68.22;102154.25;4918692;28;120083;-73
2022/11/26 07:37:40;;;;;;;54.40;14.82;;;;;;;9.64;68.13;102150.28;4908288;28;122281;-73
2022/11/26 07:40:07;;;;;;;41.60;16.03;;;;;;;9.68;68.65;102155.72;4922387;28;119636;-73
2022/11/26 07:42:33;;;;;;;43.95;15.77;;;;;;;9.73;68.70;102158.81;4911438;28;122193;-73
2022/11/26 07:44:59;;;;;;;40.10;15.05;;;;;;;9.76;68.44;102151.72;4905177;28;119905;-73
2022/11/26 07:47:25;;;;;;;40.22;15.27;;;;;;;9.81;68.92;102160.28;4921333;28;119682;-73
2022/11/26 07:49:50;;;;;;;38.03;15.97;;;;;;;9.87;68.25;102160.59;4919915;28;120236;-73
2022/11/26 07:52:16;;;;;;;34.90;15.73;;;;;;;9.90;69.04;102164.47;4921407;28;120103;-73
2022/11/26 07:54:42;;;;;;;31.30;15.63;;;;;;;9.93;68.40;102156.22;4921304;28;119847;-73
2022/11/26 07:57:10;;;;;;;34.00;15.45;;;;;;;9.96;68.65;102155.41;4904949;28;119670;-73
2022/11/26 07:59:52;;;;;;;38.58;16.38;;;;;;;10.05;69.17;102163.13;4920966;28;120338;-73
2022/11/26 08:02:18;;;;;;;34.10;15.52;;;;;;;10.12;68.97;102163.03;4904132;28;120718;-73
2022/11/26 08:04:44;;;;;;;35.45;15.80;;;;;;;10.17;68.76;102168.06;4924538;28;120423;-74
2022/11/26 08:07:09;;;;;;;41.80;16.13;;;;;;;10.26;68.98;102167.59;4905311;28;119850;-73
2022/11/26 08:10:05;;;;;;;38.17;16.80;;;;;;;10.35;69.16;102173.34;4861578;28;119497;-73
2022/11/26 08:12:30;;;;;;;36.95;16.63;;;;;;;10.43;68.79;102183.06;4867370;28;119992;-73
2022/11/26 08:14:56;;;;;;;36.60;16.37;;;;;;;10.50;68.68;102171.19;4945118;28;120814;-73
2022/11/26 08:17:22;;;;;;;35.10;16.87;;;;;;;10.57;68.49;102182.06;4982397;28;119658;-73
2022/11/26 08:19:48;;;;;;;32.47;15.45;;;;;;;10.63;68.77;102186.66;4983646;28;120110;-73
2022/11/26 08:22:13;;;;;;;37.17;16.58;;;;;;;10.72;68.44;102186.16;4982853;28;119800;-73
2022/11/26 08:24:39;;;;;;;38.83;17.70;;;;;;;10.79;68.62;102188.81;4982495;28;119858;-75
2022/11/26 08:27:05;;;;;;;38.95;17.55;;;;;;;10.86;68.66;102190.66;4968918;28;119911;-75
2022/11/26 08:29:36;;;;;;;28.48;16.92;;;;;;;10.91;68.70;102184.72;4980952;28;120040;-75
2022/11/26 08:32:02;;;;;;;35.65;17.33;;;;;;;11.00;68.31;102196.72;4982028;28;119974;-75
2022/11/26 08:34:28;;;;;;;35.63;17.87;;;;;;;11.06;68.22;102195.03;4982361;28;119787;-75
2022/11/26 08:36:54;;;;;;;33.17;17.40;;;;;;;11.10;68.38;102196.94;4964555;28;119804;-75
2022/11/26 08:39:38;;;;;;;40.08;19.27;;;;;;;11.14;68.48;102192.19;4984804;28;119687;-75
2022/11/26 08:42:04;;;;;;;40.63;18.95;;;;;;;11.22;69.02;102199.13;4987639;28;119410;-75
2022/11/26 08:44:30;;;;;;;40.88;19.55;;;;;;;11.32;69.06;102207.16;4986908;28;119704;-75
2022/11/26 08:47:08;;;;;;;35.80;19.42;;;;;;;11.38;69.23;102202.78;4986051;28;120150;-75
2022/11/26 08:49:33;;;;;;;42.20;19.63;;;;;;;11.38;69.06;102194.53;4989490;28;120656;-75
2022/11/26 08:51:59;;;;;;;39.95;20.05;;;;;;;11.51;69.25;102200.19;4967444;28;120080;-75
2022/11/26 08:54:25;;;;;;;41.65;20.95;;;;;;;11.56;69.21;102199.69;4967546;28;121130;-75
2022/11/26 08:56:51;;;;;;;40.15;20.42;;;;;;;11.61;69.17;102204.72;4986695;28;119415;-75
2022/11/26 08:59:18;;;;;;;41.42;19.90;;;;;;;11.71;69.13;102210.44;4986257;28;119478;-75
2022/11/26 09:01:44;;;;;;;49.67;21.55;;;;;;;11.80;69.24;102216.19;4951038;28;120564;-75
2022/11/26 09:04:11;;;;;;;48.30;22.53;;;;;;;11.85;69.56;102199.22;4979520;28;119812;-76
2022/11/26 09:06:37;;;;;;;36.08;20.33;;;;;;;11.95;70.03;102209.22;4984211;28;119912;-75
2022/11/26 09:09:13;;;;;;;44.70;20.33;;;;;;;12.01;69.90;102204.78;4967278;28;119926;-76
2022/11/26 09:11:45;;;;;;;39.83;20.70;;;;;;;12.14;69.35;102219.47;4989092;28;120448;-75
2022/11/26 09:14:12;;;;;;;35.40;20.17;;;;;;;12.21;69.17;102216.56;4966738;28;120288;-75
2022/11/26 09:16:39;;;;;;;40.33;21.25;;;;;;;12.28;69.17;102212.88;4985321;28;119947;-75
2022/11/26 09:19:10;;;;;;;40.40;19.90;;;;;;;12.38;68.69;102216.63;4982791;28;119442;-75
2022/11/26 09:21:36;;;;;;;36.78;19.27;;;;;;;12.45;68.89;102216.47;4968028;28;119950;-75
2022/11/26 09:24:02;;;;;;;36.95;18.52;;;;;;;12.51;68.69;102223.78;4967192;28;121135;-75
2022/11/26 09:26:32;;;;;;;36.97;18.83;;;;;;;12.60;68.78;102228.72;4965108;28;119966;-75
2022/11/26 09:29:04;;;;;;;39.45;18.55;;;;;;;12.64;68.53;102221.16;4982154;28;119897;-75
2022/11/26 09:31:31;;;;;;;37.73;17.83;;;;;;;12.74;68.36;102233.13;4964514;28;120727;-75
2022/11/26 09:34:00;;;;;;;41.40;18.88;;;;;;;12.77;68.14;102227.53;4987682;28;119446;-75
2022/11/26 09:36:26;;;;;;;41.33;18.10;;;;;;;12.80;67.88;102231.44;4964816;28;120104;-76
2022/11/26 09:38:54;;;;;;;45.95;18.73;;;;;;;12.79;67.67;102229.88;4964200;28;120055;-75
2022/11/26 09:41:23;;;;;;;46.00;18.05;;;;;;;12.85;67.71;102239.97;4982790;28;120099;-75
2022/11/26 09:44:10;;;;;;;51.45;19.05;;;;;;;12.86;67.45;102241.50;4983305;28;120251;-75
2022/11/26 09:46:47;;;;;;;49.42;18.65;;;;;;;12.90;67.92;102244.94;4982804;28;120234;-75
2022/11/26 09:49:19;;;;;;;49.88;18.70;;;;;;;12.97;67.85;102255.03;4981907;28;119944;-76
2022/11/26 09:51:50;;;;;;;53.35;17.40;;;;;;;13.04;68.39;102256.84;4981612;28;120745;-75
2022/11/26 09:54:28;;;;;;;50.90;17.70;;;;;;;13.13;68.18;102268.03;4983248;28;119700;-76
2022/11/26 09:57:05;;;;;;;48.78;17.63;;;;;;;13.18;67.93;102256.53;4982876;28;120071;-75
2022/11/26 09:59:35;;;;;;;52.65;16.45;;;;;;;13.30;67.59;102271.63;4949076;28;120164;-75
2022/11/26 10:02:00;;;;;;;50.30;16.85;;;;;;;13.35;67.65;102260.06;4981667;28;119451;-75
2022/11/26 10:04:32;;;;;;;54.10;17.07;;;;;;;13.38;67.51;102268.25;4966340;28;120013;-75
2022/11/26 10:07:34;;;;;;;53.03;17.50;;;;;;;13.50;67.28;102262.06;4985135;28;120067;-75
2022/11/26 10:10:15;;;;;;;54.28;18.35;;;;;;;13.54;67.37;102267.47;4966453;28;119983;-75
2022/11/26 10:12:46;;;;;;;49.83;18.00;;;;;;;13.60;66.48;102270.47;4983468;28;120418;-75
2022/11/26 10:15:36;;;;;;;51.20;17.33;;;;;;;13.57;66.92;102272.13;4981414;28;119997;-75
2022/11/26 10:18:45;;;;;;;47.03;17.67;;;;;;;13.59;66.89;102266.19;4970673;28;119531;-75
2022/11/26 10:21:21;;;;;;;51.67;17.47;;;;;;;13.59;67.02;102264.19;4967215;28;119882;-75
2022/11/26 10:23:59;;;;;;;48.60;17.20;;;;;;;13.57;66.83;102263.84;4981889;28;119487;-75
2022/11/26 10:26:40;;;;;;;45.03;17.40;;;;;;;13.60;67.15;102271.25;4983982;28;120168;-76
2022/11/26 10:29:26;;;;;;;45.28;17.27;;;;;;;13.63;67.60;102273.16;4964537;28;119696;-75
2022/11/26 10:32:19;;;;;;;45.15;17.73;;;;;;;13.68;67.18;102278.13;4984182;28;120508;-75
2022/11/26 10:34:51;;;;;;;42.65;16.77;;;;;;;13.72;66.81;102269.75;4983882;28;120347;-75
2022/11/26 10:37:19;;;;;;;46.70;17.58;;;;;;;13.79;67.17;102272.34;4946106;28;119696;-75
2022/11/26 10:39:45;;;;;;;44.33;17.50;;;;;;;13.82;67.03;102271.47;4963776;28;120070;-75
2022/11/26 10:42:17;;;;;;;41.27;17.57;;;;;;;13.88;66.81;102274.47;4964763;28;120033;-75
2022/11/26 10:44:44;;;;;;;48.78;18.27;;;;;;;13.85;66.58;102273.38;4980011;28;119700;-76
2022/11/26 10:47:30;;;;;;;47.15;18.48;;;;;;;13.91;66.25;102270.84;4980171;28;120394;-76
2022/11/26 10:50:34;;;;;;;49.28;18.17;;;;;;;13.95;66.78;102269.53;4962148;28;120653;-76
2022/11/26 10:53:05;;;;;;;50.67;17.00;;;;;;;14.04;66.19;102272.47;4981509;28;120584;-75
2022/11/26 10:55:42;;;;;;;46.75;15.75;;;;;;;13.96;66.92;102282.16;4981408;28;119920;-75
2022/11/26 10:58:19;;;;;;;44.47;16.65;;;;;;;13.87;66.84;102292.25;4981652;28;120067;-76
2022/11/26 11:00:58;;;;;;;47.22;16.60;;;;;;;13.80;66.72;102290.44;4963088;28;120440;-75
2022/11/26 11:03:27;;;;;;;41.47;16.08;;;;;;;13.71;66.98;102285.53;4980638;28;119872;-76
2022/11/26 11:06:17;;;;;;;40.70;15.82;;;;;;;13.69;67.21;102287.94;4967511;28;119942;-75
2022/11/26 11:08:45;;;;;;;49.47;17.20;;;;;;;13.65;67.62;102292.00;4981533;28;119964;-75
2022/11/26 11:11:24;;;;;;;46.63;16.30;;;;;;;13.59;67.62;102294.53;4979479;28;119858;-76
2022/11/26 11:13:51;;;;;;;48.38;16.55;;;;;;;13.55;67.89;102296.59;4963971;28;120820;-76
2022/11/26 11:16:28;;;;;;;40.67;15.75;;;;;;;13.53;67.49;102296.25;4981314;28;120477;-76
2022/11/26 11:18:59;;;;;;;46.17;17.17;;;;;;;13.51;67.81;102301.44;4965038;28;120104;-75
2022/11/26 11:21:43;;;;;;;47.95;17.58;;;;;;;13.51;67.93;102296.69;4980257;28;119904;-75
2022/11/26 11:24:25;;;;;;;40.30;16.13;;;;;;;13.52;68.22;102291.94;4962853;28;120584;-77